Time;durP1;ratioP1;P1;durP2;ratioP2;P2;SDS_P1;SDS_P2;PMS_P1;PMS_P2;Temp;Humidity;BMP_temperature;BMP_pressure;BME280_temperature;BME280_humidity;BME280_pressure;Samples;Min_cycle;Max_cycle;Signal;HPM_P1;HPM_P2
2022/11/14 07:07:52;;;;;;;10.00;7.65;;;;;;;;;;10561505;22;20425;-84
2022/11/14 07:12:54;;;;;;;9.52;6.72;;;;;;;;;;10458509;28;20077;-84
2022/11/14 07:17:56;;;;;;;9.38;7.72;;;;;;;;;;10467694;28;20036;-84
2022/11/14 07:22:57;;;;;;;10.45;7.78;;;;;;;;;;10399925;28;20084;-84
2022/11/14 07:27:58;;;;;;;;;;;;;;;;;;10416828;28;20084;-84
2022/11/14 07:32:59;;;;;;;8.07;6.35;;;;;;;;;;10417317;28;19984;-84
2022/11/14 07:38:00;;;;;;;;;;;;;;;;;;10414518;28;20089;-84
2022/11/14 07:43:01;;;;;;;7.15;6.15;;;;;;;;;;10415109;28;20336;-84
2022/11/14 07:48:03;;;;;;;7.75;6.30;;;;;;;;;;10414796;28;20110;-83
2022/11/14 07:53:04;;;;;;;;;;;;;;;;;;10412823;28;20029;-83
2022/11/14 07:58:27;;;;;;;9.82;8.15;;;;;;;;;;10408353;28;19991;-85
2022/11/14 08:03:51;;;;;;;7.38;5.78;;;;;;;;;;10427658;28;20073;-85
2022/11/14 08:08:52;;;;;;;10.27;7.35;;;;;;;;;;10396543;28;20068;-84
2022/11/14 08:13:53;;;;;;;12.75;8.77;;;;;;;;;;10378147;28;20033;-84
2022/11/14 08:18:54;;;;;;;14.75;9.20;;;;;;;;;;10390323;28;20041;-83
2022/11/14 08:23:55;;;;;;;;;;;;;;;;;;10412872;28;20034;-82
2022/11/14 08:28:56;;;;;;;14.13;9.77;;;;;;;;;;10410952;28;20004;-83
2022/11/14 08:33:57;;;;;;;13.57;9.77;;;;;;;;;;10381211;28;20076;-83
2022/11/14 08:38:58;;;;;;;14.80;10.02;;;;;;;;;;10379540;28;20476;-82
2022/11/14 08:43:59;;;;;;;12.88;9.90;;;;;;;;;;10381081;28;20100;-82
2022/11/14 08:49:00;;;;;;;;;;;;;;;;;;10385963;28;20046;-80
2022/11/14 08:54:01;;;;;;;13.45;10.10;;;;;;;;;;10402014;28;19973;-81
2022/11/14 08:59:03;;;;;;;11.57;9.27;;;;;;;;;;10384368;28;20154;-81
2022/11/14 09:04:04;;;;;;;13.27;9.88;;;;;;;;;;10399921;28;20056;-81
2022/11/14 09:09:05;;;;;;;14.80;9.98;;;;;;;;;;10385426;28;20123;-81
2022/11/14 09:14:06;;;;;;;;;;;;;;;;;;10381552;28;20033;-81
2022/11/14 09:19:07;;;;;;;12.48;10.10;;;;;;;;;;10381259;28;19973;-83
2022/11/14 09:24:09;;;;;;;16.08;9.32;;;;;;;;;;10383224;28;20041;-81
2022/11/14 09:29:33;;;;;;;10.85;9.25;;;;;;;;;;10395505;28;20033;-83
2022/11/14 09:40:29;;;;;;;10.98;8.57;;;;;;;;;;10400074;28;20093;-84
2022/11/14 09:51:06;;;;;;;11.52;9.57;;;;;;;;;;10405347;28;20049;-84
2022/11/14 09:56:35;;;;;;;11.07;8.20;;;;;;;;;;10385686;28;20029;-85
2022/11/14 10:07:40;;;;;;;12.63;10.15;;;;;;;;;;10403065;28;20057;-83
2022/11/14 10:13:29;;;;;;;14.63;11.15;;;;;;;;;;10403198;28;20056;-83
2022/11/14 10:18:48;;;;;;;14.15;10.90;;;;;;;;;;10402703;28;20025;-83
2022/11/14 10:29:47;;;;;;;15.43;12.63;;;;;;;;;;10404179;28;20128;-83
2022/11/14 10:35:13;;;;;;;19.93;13.37;;;;;;;;;;10404286;28;20030;-83
2022/11/14 10:40:36;;;;;;;16.40;12.52;;;;;;;;;;10388984;28;20038;-83
2022/11/14 10:46:24;;;;;;;15.00;10.50;;;;;;;;;;10404886;28;20029;-83
2022/11/14 10:57:36;;;;;;;11.77;9.02;;;;;;;;;;10365022;28;20033;-84
2022/11/14 11:14:26;;;;;;;11.65;8.98;;;;;;;;;;10296187;28;20035;-83
2022/11/14 11:25:24;;;;;;;10.82;8.57;;;;;;;;;;10274609;29;20053;-85
2022/11/14 11:53:49;;;;;;;9.90;8.23;;;;;;;;;;10205143;29;20036;-84
2022/11/14 12:10:47;;;;;;;11.82;8.93;;;;;;;;;;10227270;28;20418;-86
2022/11/14 12:16:12;;;;;;;16.05;10.57;;;;;;;;;;10339674;28;20069;-84
2022/11/14 12:27:49;;;;;;;8.90;7.43;;;;;;;;;;10370175;28;20050;-84
2022/11/14 12:45:12;;;;;;;9.07;7.20;;;;;;;;;;10243640;29;20103;-83
2022/11/14 12:50:38;;;;;;;13.00;9.68;;;;;;;;;;10181438;29;20034;-86
2022/11/14 12:56:43;;;;;;;8.48;6.60;;;;;;;;;;10159167;29;20020;-83
2022/11/14 13:07:44;;;;;;;13.48;8.98;;;;;;;;;;10402858;28;20041;-83
2022/11/14 13:23:55;;;;;;;10.18;7.72;;;;;;;;;;10431032;28;20556;-82
2022/11/14 13:28:57;;;;;;;10.93;8.15;;;;;;;;;;10427041;28;20094;-81
2022/11/14 13:33:59;;;;;;;9.75;7.35;;;;;;;;;;10427191;28;20507;-81
2022/11/14 13:39:06;;;;;;;7.95;6.28;;;;;;;;;;10425975;28;20026;-81
2022/11/14 13:44:07;;;;;;;10.65;8.82;;;;;;;;;;10427267;28;20029;-82
2022/11/14 13:49:13;;;;;;;;;;;;;;;;;;10429384;28;20112;-80
2022/11/14 13:54:18;;;;;;;9.95;7.32;;;;;;;;;;10426664;28;19980;-81
2022/11/14 13:59:19;;;;;;;11.70;7.68;;;;;;;;;;10426870;28;20036;-80
2022/11/14 14:04:20;;;;;;;6.75;5.18;;;;;;;;;;10426232;28;20077;-81
2022/11/14 14:09:39;;;;;;;10.00;6.03;;;;;;;;;;10426385;28;20037;-80
2022/11/14 14:14:50;;;;;;;6.50;4.95;;;;;;;;;;10427256;28;20120;-81
2022/11/14 14:20:06;;;;;;;7.17;5.30;;;;;;;;;;10425779;28;20031;-81
2022/11/14 14:25:17;;;;;;;8.68;7.45;;;;;;;;;;10424604;28;20497;-80
2022/11/14 14:30:19;;;;;;;8.32;6.85;;;;;;;;;;10420460;28;20114;-81
2022/11/14 14:35:27;;;;;;;6.20;4.50;;;;;;;;;;10421080;28;20079;-80
2022/11/14 14:40:34;;;;;;;7.32;5.20;;;;;;;;;;10421742;28;20409;-81
2022/11/14 14:45:48;;;;;;;6.45;4.82;;;;;;;;;;10423287;28;20026;-81
2022/11/14 14:50:50;;;;;;;7.82;5.30;;;;;;;;;;10422534;28;20120;-80
2022/11/14 14:56:15;;;;;;;5.55;4.40;;;;;;;;;;10424181;28;20040;-80
2022/11/14 15:01:22;;;;;;;5.85;4.63;;;;;;;;;;10409718;28;20045;-81
2022/11/14 15:06:28;;;;;;;10.20;6.40;;;;;;;;;;10425529;28;20025;-81
2022/11/14 15:11:29;;;;;;;8.63;5.63;;;;;;;;;;10440331;28;20026;-79
2022/11/14 15:16:31;;;;;;;12.13;8.98;;;;;;;;;;10441160;28;20025;-80
2022/11/14 15:21:31;;;;;;;;;;;;;;;;;;10439202;28;20205;-80
2022/11/14 15:26:34;;;;;;;12.05;9.43;;;;;;;;;;10440430;28;19916;-80
2022/11/14 15:31:59;;;;;;;12.05;9.93;;;;;;;;;;10437450;28;20064;-81
2022/11/14 15:37:17;;;;;;;14.88;10.07;;;;;;;;;;10427983;28;20033;-80
2022/11/14 15:42:27;;;;;;;10.65;8.43;;;;;;;;;;10433418;28;20520;-80
2022/11/14 15:47:29;;;;;;;12.70;9.65;;;;;;;;;;10433473;28;20481;-82
2022/11/14 15:52:45;;;;;;;12.10;8.70;;;;;;;;;;10434073;28;20025;-82
2022/11/14 15:57:46;;;;;;;11.65;7.25;;;;;;;;;;10433387;28;20598;-82
2022/11/14 16:02:50;;;;;;;10.75;8.68;;;;;;;;;;10434350;28;20072;-82
2022/11/14 16:07:51;;;;;;;10.45;8.10;;;;;;;;;;10440625;28;20550;-83
2022/11/14 16:12:52;;;;;;;14.02;10.05;;;;;;;;;;10436063;28;20053;-81
2022/11/14 16:17:54;;;;;;;12.57;9.13;;;;;;;;;;10428687;28;20060;-82
2022/11/14 16:22:55;;;;;;;;;;;;;;;;;;10428400;28;20436;-80
2022/11/14 16:27:56;;;;;;;9.93;7.00;;;;;;;;;;10427524;28;19936;-82
2022/11/14 16:32:58;;;;;;;12.75;9.82;;;;;;;;;;10432211;28;20030;-82
2022/11/14 16:37:59;;;;;;;;;;;;;;;;;;10430603;28;20051;-82
2022/11/14 16:43:04;;;;;;;12.95;10.02;;;;;;;;;;10432152;28;19911;-82
2022/11/14 16:48:05;;;;;;;12.10;9.80;;;;;;;;;;10438640;28;20108;-81
2022/11/14 16:53:06;;;;;;;;;;;;;;;;;;10436957;28;20073;-82
2022/11/14 16:58:07;;;;;;;11.00;8.95;;;;;;;;;;10436923;28;19995;-82
2022/11/14 17:03:08;;;;;;;11.35;8.93;;;;;;;;;;10431900;28;20079;-82
2022/11/14 17:08:09;;;;;;;14.93;10.88;;;;;;;;;;10430489;28;20048;-81
2022/11/14 17:13:10;;;;;;;11.55;8.48;;;;;;;;;;10433106;28;20037;-82
2022/11/14 17:18:11;;;;;;;8.68;6.55;;;;;;;;;;10435360;28;20025;-81
2022/11/14 17:23:13;;;;;;;;;;;;;;;;;;10436515;28;20033;-83
2022/11/14 17:28:14;;;;;;;12.35;9.85;;;;;;;;;;10431952;28;19905;-82
2022/11/14 17:33:15;;;;;;;;;;;;;;;;;;10430060;28;20067;-82
2022/11/14 17:38:16;;;;;;;10.07;7.50;;;;;;;;;;10429840;28;19958;-81
2022/11/14 17:48:58;;;;;;;17.13;11.10;;;;;;;;;;10495673;22;20056;-83
2022/11/14 17:53:59;;;;;;;12.65;9.68;;;;;;;;;;10465982;28;20041;-82
2022/11/14 17:59:00;;;;;;;14.95;11.13;;;;;;;;;;10455488;28;20036;-83
2022/11/14 18:04:02;;;;;;;;;;;;;;;;;;10494222;28;20049;-82
2022/11/14 18:09:05;;;;;;;12.07;9.20;;;;;;;;;;10493919;28;20007;-82
2022/11/14 18:19:46;;;;;;;10.70;8.65;;;;;;;;;;10512971;28;20056;-83
2022/11/14 18:24:58;;;;;;;10.80;8.80;;;;;;;;;;10497625;28;20071;-83
2022/11/14 18:29:59;;;;;;;12.18;9.95;;;;;;;;;;10511557;28;20104;-83
2022/11/14 18:35:00;;;;;;;15.82;11.57;;;;;;;;;;10510815;28;20033;-83
2022/11/14 18:40:02;;;;;;;10.65;8.48;;;;;;;;;;10490467;28;20064;-84
2022/11/14 18:45:03;;;;;;;9.93;8.00;;;;;;;;;;10495233;28;20025;-83
2022/11/14 18:50:05;;;;;;;7.88;6.20;;;;;;;;;;10490329;28;20127;-84
2022/11/14 18:55:06;;;;;;;13.60;11.05;;;;;;;;;;10490788;28;20407;-83
2022/11/14 19:00:08;;;;;;;17.77;11.85;;;;;;;;;;10489253;28;20041;-83
2022/11/14 19:05:09;;;;;;;12.73;10.27;;;;;;;;;;10489695;28;20044;-83
